sensor_id;sensor_type;location;lat;lon;timestamp;temperature;humidity
12568;DHT22;6349;50.904;6.136;2023-09-19T00:00:58;16.80;99.90
12568;DHT22;6349;50.904;6.136;2023-09-19T00:02:59;16.80;99.90
12568;DHT22;6349;50.904;6.136;2023-09-19T00:04:59;16.80;99.90
12568;DHT22;6349;50.904;6.136;2023-09-19T00:07:04;16.70;99.90
12568;DHT22;6349;50.904;6.136;2023-09-19T00:09:05;16.70;99.90
12568;DHT22;6349;50.904;6.136;2023-09-19T00:11:10;16.80;99.90
12568;DHT22;6349;50.904;6.136;2023-09-19T00:13:11;16.80;99.90
12568;DHT22;6349;50.904;6.136;2023-09-19T00:15:14;16.70;99.90
12568;DHT22;6349;50.904;6.136;2023-09-19T00:17:18;16.80;99.90
12568;DHT22;6349;50.904;6.136;2023-09-19T00:19:18;16.70;99.90
12568;DHT22;6349;50.904;6.136;2023-09-19T00:21:19;16.80;99.90
12568;DHT22;6349;50.904;6.136;2023-09-19T00:23:20;16.80;99.90
12568;DHT22;6349;50.904;6.136;2023-09-19T00:25:20;16.80;99.90
12568;DHT22;6349;50.904;6.136;2023-09-19T00:27:21;16.80;99.90
12568;DHT22;6349;50.904;6.136;2023-09-19T00:29:22;16.80;99.90
12568;DHT22;6349;50.904;6.136;2023-09-19T00:31:23;16.70;99.90
12568;DHT22;6349;50.904;6.136;2023-09-19T00:33:25;16.70;99.90
12568;DHT22;6349;50.904;6.136;2023-09-19T00:35:26;16.70;99.90
12568;DHT22;6349;50.904;6.136;2023-09-19T00:37:27;16.80;99.90
12568;DHT22;6349;50.904;6.136;2023-09-19T00:39:28;16.70;99.90
12568;DHT22;6349;50.904;6.136;2023-09-19T00:41:28;16.70;99.90
12568;DHT22;6349;50.904;6.136;2023-09-19T00:43:30;16.70;99.90
12568;DHT22;6349;50.904;6.136;2023-09-19T00:45:36;16.70;99.90
12568;DHT22;6349;50.904;6.136;2023-09-19T00:47:50;16.70;99.90
12568;DHT22;6349;50.904;6.136;2023-09-19T00:49:51;16.70;99.90
12568;DHT22;6349;50.904;6.136;2023-09-19T00:51:53;16.70;99.90
12568;DHT22;6349;50.904;6.136;2023-09-19T00:53:54;16.70;99.90
12568;DHT22;6349;50.904;6.136;2023-09-19T00:55:55;16.60;99.90
12568;DHT22;6349;50.904;6.136;2023-09-19T00:57:56;16.60;99.90
12568;DHT22;6349;50.904;6.136;2023-09-19T00:59:57;16.60;99.90
12568;DHT22;6349;50.904;6.136;2023-09-19T01:01:58;16.60;99.90
12568;DHT22;6349;50.904;6.136;2023-09-19T01:04:00;16.60;99.90
12568;DHT22;6349;50.904;6.136;2023-09-19T01:06:01;16.50;99.90
12568;DHT22;6349;50.904;6.136;2023-09-19T01:08:03;16.50;99.90
12568;DHT22;6349;50.904;6.136;2023-09-19T01:10:04;16.50;99.90
12568;DHT22;6349;50.904;6.136;2023-09-19T01:12:06;16.50;99.90
12568;DHT22;6349;50.904;6.136;2023-09-19T01:14:22;16.50;99.90
12568;DHT22;6349;50.904;6.136;2023-09-19T01:16:50;16.40;99.90
12568;DHT22;6349;50.904;6.136;2023-09-19T01:21:52;16.40;99.90
12568;DHT22;6349;50.904;6.136;2023-09-19T01:29:08;16.30;99.90
12568;DHT22;6349;50.904;6.136;2023-09-19T01:31:13;16.30;99.90
12568;DHT22;6349;50.904;6.136;2023-09-19T01:33:15;16.30;99.90
12568;DHT22;6349;50.904;6.136;2023-09-19T01:35:15;16.30;99.90
12568;DHT22;6349;50.904;6.136;2023-09-19T01:37:18;16.20;99.90
12568;DHT22;6349;50.904;6.136;2023-09-19T01:39:20;16.20;99.90
12568;DHT22;6349;50.904;6.136;2023-09-19T01:41:27;16.20;99.90
12568;DHT22;6349;50.904;6.136;2023-09-19T01:43:42;16.20;99.90
12568;DHT22;6349;50.904;6.136;2023-09-19T01:51:07;16.20;99.90
12568;DHT22;6349;50.904;6.136;2023-09-19T01:53:15;16.10;99.90
12568;DHT22;6349;50.904;6.136;2023-09-19T01:55:20;16.20;99.90
12568;DHT22;6349;50.904;6.136;2023-09-19T01:57:28;16.20;99.90
12568;DHT22;6349;50.904;6.136;2023-09-19T01:59:37;16.10;99.90
12568;DHT22;6349;50.904;6.136;2023-09-19T02:01:39;16.10;99.90
12568;DHT22;6349;50.904;6.136;2023-09-19T02:03:41;16.10;99.90
12568;DHT22;6349;50.904;6.136;2023-09-19T02:05:48;16.10;99.90
12568;DHT22;6349;50.904;6.136;2023-09-19T02:07:51;16.00;99.90
12568;DHT22;6349;50.904;6.136;2023-09-19T02:09:51;16.10;99.90
12568;DHT22;6349;50.904;6.136;2023-09-19T02:11:52;16.10;99.90
12568;DHT22;6349;50.904;6.136;2023-09-19T02:13:53;16.00;99.90
12568;DHT22;6349;50.904;6.136;2023-09-19T02:15:54;16.10;99.90
12568;DHT22;6349;50.904;6.136;2023-09-19T02:17:56;16.00;99.90
12568;DHT22;6349;50.904;6.136;2023-09-19T02:19:57;16.00;99.90
12568;DHT22;6349;50.904;6.136;2023-09-19T02:21:59;16.00;99.90
12568;DHT22;6349;50.904;6.136;2023-09-19T02:24:00;16.00;99.90
12568;DHT22;6349;50.904;6.136;2023-09-19T02:26:01;16.00;99.90
12568;DHT22;6349;50.904;6.136;2023-09-19T02:28:02;16.00;99.90
12568;DHT22;6349;50.904;6.136;2023-09-19T02:30:04;16.00;99.90
12568;DHT22;6349;50.904;6.136;2023-09-19T02:32:06;16.00;99.90
12568;DHT22;6349;50.904;6.136;2023-09-19T02:34:07;15.90;99.90
12568;DHT22;6349;50.904;6.136;2023-09-19T02:36:09;15.90;99.90
12568;DHT22;6349;50.904;6.136;2023-09-19T02:38:10;15.90;99.90
12568;DHT22;6349;50.904;6.136;2023-09-19T02:40:12;15.90;99.90
12568;DHT22;6349;50.904;6.136;2023-09-19T02:42:19;15.90;99.90
12568;DHT22;6349;50.904;6.136;2023-09-19T02:44:19;15.80;99.90
12568;DHT22;6349;50.904;6.136;2023-09-19T02:46:20;15.90;99.90
12568;DHT22;6349;50.904;6.136;2023-09-19T02:48:21;15.80;99.90
12568;DHT22;6349;50.904;6.136;2023-09-19T02:50:22;15.80;99.90
12568;DHT22;6349;50.904;6.136;2023-09-19T02:52:22;15.80;99.90
12568;DHT22;6349;50.904;6.136;2023-09-19T02:54:25;15.80;99.90
12568;DHT22;6349;50.904;6.136;2023-09-19T02:56:26;15.80;99.90
12568;DHT22;6349;50.904;6.136;2023-09-19T02:58:27;15.80;99.90
12568;DHT22;6349;50.904;6.136;2023-09-19T03:00:28;15.80;99.90
12568;DHT22;6349;50.904;6.136;2023-09-19T03:02:29;15.80;99.90
12568;DHT22;6349;50.904;6.136;2023-09-19T03:04:33;15.80;99.90
12568;DHT22;6349;50.904;6.136;2023-09-19T03:06:35;15.70;99.90
12568;DHT22;6349;50.904;6.136;2023-09-19T03:08:36;15.70;99.90
12568;DHT22;6349;50.904;6.136;2023-09-19T03:10:39;15.70;99.90
12568;DHT22;6349;50.904;6.136;2023-09-19T03:12:39;15.70;99.90
12568;DHT22;6349;50.904;6.136;2023-09-19T03:14:40;15.70;99.90
12568;DHT22;6349;50.904;6.136;2023-09-19T03:16:41;15.70;99.90
12568;DHT22;6349;50.904;6.136;2023-09-19T03:18:44;15.60;99.90
12568;DHT22;6349;50.904;6.136;2023-09-19T03:20:53;15.70;99.90
12568;DHT22;6349;50.904;6.136;2023-09-19T03:22:55;15.60;99.90
12568;DHT22;6349;50.904;6.136;2023-09-19T03:24:57;15.60;99.90
12568;DHT22;6349;50.904;6.136;2023-09-19T03:26:58;15.60;99.90
12568;DHT22;6349;50.904;6.136;2023-09-19T03:28:58;15.60;99.90
12568;DHT22;6349;50.904;6.136;2023-09-19T03:31:04;15.60;99.90
12568;DHT22;6349;50.904;6.136;2023-09-19T03:33:05;15.60;99.90
12568;DHT22;6349;50.904;6.136;2023-09-19T03:35:06;15.60;99.90
12568;DHT22;6349;50.904;6.136;2023-09-19T03:37:07;15.60;99.90
12568;DHT22;6349;50.904;6.136;2023-09-19T03:39:07;15.50;99.90
12568;DHT22;6349;50.904;6.136;2023-09-19T03:41:08;15.50;99.90
12568;DHT22;6349;50.904;6.136;2023-09-19T03:43:10;15.50;99.90
12568;DHT22;6349;50.904;6.136;2023-09-19T03:45:10;15.50;99.90
12568;DHT22;6349;50.904;6.136;2023-09-19T03:47:16;15.50;99.90
12568;DHT22;6349;50.904;6.136;2023-09-19T03:49:16;15.50;99.90
12568;DHT22;6349;50.904;6.136;2023-09-19T03:51:17;15.50;99.90
12568;DHT22;6349;50.904;6.136;2023-09-19T03:53:17;15.50;99.90
12568;DHT22;6349;50.904;6.136;2023-09-19T03:55:18;15.40;99.90
12568;DHT22;6349;50.904;6.136;2023-09-19T03:57:19;15.40;99.90
12568;DHT22;6349;50.904;6.136;2023-09-19T03:59:21;15.40;99.90
12568;DHT22;6349;50.904;6.136;2023-09-19T04:01:21;15.40;99.90
12568;DHT22;6349;50.904;6.136;2023-09-19T04:03:22;15.40;99.90
12568;DHT22;6349;50.904;6.136;2023-09-19T04:05:23;15.40;99.90
12568;DHT22;6349;50.904;6.136;2023-09-19T04:07:24;15.40;99.90
12568;DHT22;6349;50.904;6.136;2023-09-19T04:09:26;15.40;99.90
12568;DHT22;6349;50.904;6.136;2023-09-19T04:11:27;15.30;99.90
12568;DHT22;6349;50.904;6.136;2023-09-19T04:13:27;15.30;99.90
12568;DHT22;6349;50.904;6.136;2023-09-19T04:15:28;15.30;99.90
12568;DHT22;6349;50.904;6.136;2023-09-19T04:17:29;15.30;99.90
12568;DHT22;6349;50.904;6.136;2023-09-19T04:19:29;15.30;99.90
12568;DHT22;6349;50.904;6.136;2023-09-19T04:21:30;15.30;99.90
12568;DHT22;6349;50.904;6.136;2023-09-19T04:23:31;15.30;99.90
12568;DHT22;6349;50.904;6.136;2023-09-19T04:25:31;15.20;99.90
12568;DHT22;6349;50.904;6.136;2023-09-19T04:27:33;15.20;99.90
12568;DHT22;6349;50.904;6.136;2023-09-19T04:29:33;15.20;99.90
12568;DHT22;6349;50.904;6.136;2023-09-19T04:31:34;15.20;99.90
12568;DHT22;6349;50.904;6.136;2023-09-19T04:33:34;15.20;99.90
12568;DHT22;6349;50.904;6.136;2023-09-19T04:35:35;15.20;99.90
12568;DHT22;6349;50.904;6.136;2023-09-19T04:37:39;15.20;99.90
12568;DHT22;6349;50.904;6.136;2023-09-19T04:39:40;15.20;99.90
12568;DHT22;6349;50.904;6.136;2023-09-19T04:41:41;15.10;99.90
12568;DHT22;6349;50.904;6.136;2023-09-19T04:43:41;15.20;99.90
12568;DHT22;6349;50.904;6.136;2023-09-19T04:45:42;15.10;99.90
12568;DHT22;6349;50.904;6.136;2023-09-19T04:47:42;15.20;99.90
12568;DHT22;6349;50.904;6.136;2023-09-19T04:49:44;15.20;99.90
12568;DHT22;6349;50.904;6.136;2023-09-19T04:51:44;15.20;99.90
12568;DHT22;6349;50.904;6.136;2023-09-19T04:53:47;15.20;99.90
12568;DHT22;6349;50.904;6.136;2023-09-19T04:55:51;15.20;99.90
12568;DHT22;6349;50.904;6.136;2023-09-19T04:57:56;15.20;99.90
12568;DHT22;6349;50.904;6.136;2023-09-19T04:59:56;15.20;99.90
12568;DHT22;6349;50.904;6.136;2023-09-19T05:01:58;15.20;99.90
12568;DHT22;6349;50.904;6.136;2023-09-19T05:03:59;15.20;99.90
12568;DHT22;6349;50.904;6.136;2023-09-19T05:05:59;15.20;99.90
12568;DHT22;6349;50.904;6.136;2023-09-19T05:08:00;15.20;99.90
12568;DHT22;6349;50.904;6.136;2023-09-19T05:10:02;15.20;99.90
12568;DHT22;6349;50.904;6.136;2023-09-19T05:12:05;15.20;99.90
12568;DHT22;6349;50.904;6.136;2023-09-19T05:14:06;15.20;99.90
12568;DHT22;6349;50.904;6.136;2023-09-19T05:16:07;15.00;99.90
12568;DHT22;6349;50.904;6.136;2023-09-19T05:18:10;15.00;99.90
12568;DHT22;6349;50.904;6.136;2023-09-19T05:20:11;15.00;99.90
12568;DHT22;6349;50.904;6.136;2023-09-19T05:22:27;15.00;99.90
12568;DHT22;6349;50.904;6.136;2023-09-19T05:24:27;15.10;99.90
12568;DHT22;6349;50.904;6.136;2023-09-19T05:26:28;15.00;99.90
12568;DHT22;6349;50.904;6.136;2023-09-19T05:28:29;15.00;99.90
12568;DHT22;6349;50.904;6.136;2023-09-19T05:30:29;15.10;99.90
12568;DHT22;6349;50.904;6.136;2023-09-19T05:32:30;15.00;99.90
12568;DHT22;6349;50.904;6.136;2023-09-19T05:34:31;15.10;99.90
12568;DHT22;6349;50.904;6.136;2023-09-19T05:36:31;15.10;99.90
12568;DHT22;6349;50.904;6.136;2023-09-19T05:38:32;15.10;99.90
12568;DHT22;6349;50.904;6.136;2023-09-19T05:40:33;15.10;99.90
12568;DHT22;6349;50.904;6.136;2023-09-19T05:42:33;15.00;99.90
12568;DHT22;6349;50.904;6.136;2023-09-19T05:44:34;15.00;99.90
12568;DHT22;6349;50.904;6.136;2023-09-19T05:46:34;15.00;99.90
12568;DHT22;6349;50.904;6.136;2023-09-19T05:48:35;15.00;99.90
12568;DHT22;6349;50.904;6.136;2023-09-19T05:50:36;15.00;99.90
12568;DHT22;6349;50.904;6.136;2023-09-19T05:52:37;15.00;99.90
12568;DHT22;6349;50.904;6.136;2023-09-19T05:54:38;15.00;99.90
12568;DHT22;6349;50.904;6.136;2023-09-19T05:56:39;15.00;99.90
12568;DHT22;6349;50.904;6.136;2023-09-19T05:58:39;15.00;99.90
12568;DHT22;6349;50.904;6.136;2023-09-19T06:00:40;15.00;99.90
12568;DHT22;6349;50.904;6.136;2023-09-19T06:02:43;15.00;99.90
12568;DHT22;6349;50.904;6.136;2023-09-19T06:04:45;15.00;99.90
12568;DHT22;6349;50.904;6.136;2023-09-19T06:06:46;15.00;99.90
12568;DHT22;6349;50.904;6.136;2023-09-19T06:08:49;15.00;99.90
12568;DHT22;6349;50.904;6.136;2023-09-19T06:10:51;15.10;99.90
12568;DHT22;6349;50.904;6.136;2023-09-19T06:12:52;15.00;99.90
12568;DHT22;6349;50.904;6.136;2023-09-19T06:14:53;15.00;99.90
12568;DHT22;6349;50.904;6.136;2023-09-19T06:16:54;15.10;99.90
12568;DHT22;6349;50.904;6.136;2023-09-19T06:18:55;15.10;99.90
12568;DHT22;6349;50.904;6.136;2023-09-19T06:20:56;15.00;99.90
12568;DHT22;6349;50.904;6.136;2023-09-19T06:22:57;15.00;99.90
12568;DHT22;6349;50.904;6.136;2023-09-19T06:24:58;15.10;99.90
12568;DHT22;6349;50.904;6.136;2023-09-19T06:26:59;15.10;99.90
12568;DHT22;6349;50.904;6.136;2023-09-19T06:29:01;15.10;99.90
12568;DHT22;6349;50.904;6.136;2023-09-19T06:31:07;15.10;99.90
12568;DHT22;6349;50.904;6.136;2023-09-19T06:33:10;15.20;99.90
12568;DHT22;6349;50.904;6.136;2023-09-19T06:35:14;15.20;99.90
12568;DHT22;6349;50.904;6.136;2023-09-19T06:37:15;15.20;99.90
12568;DHT22;6349;50.904;6.136;2023-09-19T06:39:16;15.20;99.90
12568;DHT22;6349;50.904;6.136;2023-09-19T06:41:17;15.20;99.90
12568;DHT22;6349;50.904;6.136;2023-09-19T06:43:18;15.20;99.90
12568;DHT22;6349;50.904;6.136;2023-09-19T06:45:18;15.20;99.90
12568;DHT22;6349;50.904;6.136;2023-09-19T06:47:19;15.20;99.90
12568;DHT22;6349;50.904;6.136;2023-09-19T06:49:20;15.20;99.90
12568;DHT22;6349;50.904;6.136;2023-09-19T06:51:21;15.20;99.90
12568;DHT22;6349;50.904;6.136;2023-09-19T06:53:21;15.30;99.90
12568;DHT22;6349;50.904;6.136;2023-09-19T06:55:24;15.30;99.90
12568;DHT22;6349;50.904;6.136;2023-09-19T06:57:25;15.20;99.90
12568;DHT22;6349;50.904;6.136;2023-09-19T06:59:26;15.30;99.90
12568;DHT22;6349;50.904;6.136;2023-09-19T07:01:26;15.30;99.90
12568;DHT22;6349;50.904;6.136;2023-09-19T07:03:27;15.30;99.90
12568;DHT22;6349;50.904;6.136;2023-09-19T07:05:32;15.30;99.90
12568;DHT22;6349;50.904;6.136;2023-09-19T07:07:33;15.30;99.90
12568;DHT22;6349;50.904;6.136;2023-09-19T07:09:35;15.30;99.90
12568;DHT22;6349;50.904;6.136;2023-09-19T07:11:35;15.40;99.90
12568;DHT22;6349;50.904;6.136;2023-09-19T07:13:37;15.40;99.90
12568;DHT22;6349;50.904;6.136;2023-09-19T07:15:39;15.40;99.90
12568;DHT22;6349;50.904;6.136;2023-09-19T07:17:41;15.40;99.90
12568;DHT22;6349;50.904;6.136;2023-09-19T07:19:42;15.50;99.90
12568;DHT22;6349;50.904;6.136;2023-09-19T07:21:42;15.50;99.90
12568;DHT22;6349;50.904;6.136;2023-09-19T07:23:43;15.50;99.90
12568;DHT22;6349;50.904;6.136;2023-09-19T07:25:44;15.50;99.90
12568;DHT22;6349;50.904;6.136;2023-09-19T07:27:45;15.50;99.90
12568;DHT22;6349;50.904;6.136;2023-09-19T07:29:45;15.50;99.90
12568;DHT22;6349;50.904;6.136;2023-09-19T07:31:46;15.60;99.90
12568;DHT22;6349;50.904;6.136;2023-09-19T07:33:46;15.60;99.90
12568;DHT22;6349;50.904;6.136;2023-09-19T07:35:47;15.60;99.90
12568;DHT22;6349;50.904;6.136;2023-09-19T07:37:49;15.70;99.90
12568;DHT22;6349;50.904;6.136;2023-09-19T07:39:50;15.70;99.90
12568;DHT22;6349;50.904;6.136;2023-09-19T07:41:51;15.70;99.90
12568;DHT22;6349;50.904;6.136;2023-09-19T07:43:51;15.70;99.90
12568;DHT22;6349;50.904;6.136;2023-09-19T07:45:52;15.70;99.90
12568;DHT22;6349;50.904;6.136;2023-09-19T07:47:53;15.70;99.90
12568;DHT22;6349;50.904;6.136;2023-09-19T07:49:55;15.80;99.90
12568;DHT22;6349;50.904;6.136;2023-09-19T07:51:56;15.80;99.90
12568;DHT22;6349;50.904;6.136;2023-09-19T07:53:57;15.80;99.90
12568;DHT22;6349;50.904;6.136;2023-09-19T07:56:02;15.90;99.90
12568;DHT22;6349;50.904;6.136;2023-09-19T07:58:04;15.90;99.90
12568;DHT22;6349;50.904;6.136;2023-09-19T08:00:06;16.00;99.90
12568;DHT22;6349;50.904;6.136;2023-09-19T08:02:10;16.00;99.90
12568;DHT22;6349;50.904;6.136;2023-09-19T08:04:16;16.00;99.90
12568;DHT22;6349;50.904;6.136;2023-09-19T08:06:16;16.00;99.90
12568;DHT22;6349;50.904;6.136;2023-09-19T08:08:17;16.00;99.90
12568;DHT22;6349;50.904;6.136;2023-09-19T08:10:18;16.00;99.90
12568;DHT22;6349;50.904;6.136;2023-09-19T08:12:20;16.00;99.90
12568;DHT22;6349;50.904;6.136;2023-09-19T08:14:24;16.00;99.90
12568;DHT22;6349;50.904;6.136;2023-09-19T08:16:26;16.10;99.90
12568;DHT22;6349;50.904;6.136;2023-09-19T08:18:26;16.10;99.90
12568;DHT22;6349;50.904;6.136;2023-09-19T08:20:30;16.10;99.90
12568;DHT22;6349;50.904;6.136;2023-09-19T08:22:31;16.10;99.90
12568;DHT22;6349;50.904;6.136;2023-09-19T08:24:32;16.10;99.90
12568;DHT22;6349;50.904;6.136;2023-09-19T08:26:33;16.20;99.90
12568;DHT22;6349;50.904;6.136;2023-09-19T08:28:35;16.30;99.90
12568;DHT22;6349;50.904;6.136;2023-09-19T08:30:35;16.30;99.90
12568;DHT22;6349;50.904;6.136;2023-09-19T08:32:41;16.30;99.90
12568;DHT22;6349;50.904;6.136;2023-09-19T08:34:42;16.30;99.90
12568;DHT22;6349;50.904;6.136;2023-09-19T08:36:43;16.40;99.90
12568;DHT22;6349;50.904;6.136;2023-09-19T08:38:45;16.40;99.90
12568;DHT22;6349;50.904;6.136;2023-09-19T08:40:46;16.40;99.90
12568;DHT22;6349;50.904;6.136;2023-09-19T08:42:56;16.40;99.90
12568;DHT22;6349;50.904;6.136;2023-09-19T08:44:58;16.40;99.90
12568;DHT22;6349;50.904;6.136;2023-09-19T08:47:11;16.50;99.90
12568;DHT22;6349;50.904;6.136;2023-09-19T08:49:33;16.50;99.90
12568;DHT22;6349;50.904;6.136;2023-09-19T08:51:41;16.50;99.90
12568;DHT22;6349;50.904;6.136;2023-09-19T08:54:08;16.50;99.60
12568;DHT22;6349;50.904;6.136;2023-09-19T08:56:14;16.50;98.90
12568;DHT22;6349;50.904;6.136;2023-09-19T08:58:18;16.60;99.30
12568;DHT22;6349;50.904;6.136;2023-09-19T09:00:21;16.60;99.60
12568;DHT22;6349;50.904;6.136;2023-09-19T09:02:23;16.60;99.50
12568;DHT22;6349;50.904;6.136;2023-09-19T09:04:24;16.60;98.20
12568;DHT22;6349;50.904;6.136;2023-09-19T09:06:26;16.60;99.90
12568;DHT22;6349;50.904;6.136;2023-09-19T09:08:30;16.70;99.90
12568;DHT22;6349;50.904;6.136;2023-09-19T09:10:31;16.70;99.50
12568;DHT22;6349;50.904;6.136;2023-09-19T09:12:33;16.80;98.80
12568;DHT22;6349;50.904;6.136;2023-09-19T09:14:35;16.70;98.40
12568;DHT22;6349;50.904;6.136;2023-09-19T09:16:35;16.80;98.40
12568;DHT22;6349;50.904;6.136;2023-09-19T09:18:36;16.80;98.30
12568;DHT22;6349;50.904;6.136;2023-09-19T09:20:37;16.80;97.90
12568;DHT22;6349;50.904;6.136;2023-09-19T09:22:38;16.90;97.40
12568;DHT22;6349;50.904;6.136;2023-09-19T09:27:04;16.90;97.70
12568;DHT22;6349;50.904;6.136;2023-09-19T09:29:08;17.00;98.60
12568;DHT22;6349;50.904;6.136;2023-09-19T09:31:22;17.00;96.10
12568;DHT22;6349;50.904;6.136;2023-09-19T09:33:23;17.10;96.80
12568;DHT22;6349;50.904;6.136;2023-09-19T09:35:24;17.10;94.80
12568;DHT22;6349;50.904;6.136;2023-09-19T09:37:25;17.20;95.30
12568;DHT22;6349;50.904;6.136;2023-09-19T09:39:31;17.10;97.80
12568;DHT22;6349;50.904;6.136;2023-09-19T09:41:36;17.20;92.80
12568;DHT22;6349;50.904;6.136;2023-09-19T09:43:39;17.10;94.30
12568;DHT22;6349;50.904;6.136;2023-09-19T09:45:40;17.10;94.10
12568;DHT22;6349;50.904;6.136;2023-09-19T09:47:49;17.10;91.20
12568;DHT22;6349;50.904;6.136;2023-09-19T09:49:58;17.10;92.10
12568;DHT22;6349;50.904;6.136;2023-09-19T09:52:07;17.10;92.70
12568;DHT22;6349;50.904;6.136;2023-09-19T09:54:18;17.20;91.70
12568;DHT22;6349;50.904;6.136;2023-09-19T09:56:21;17.20;91.30
12568;DHT22;6349;50.904;6.136;2023-09-19T09:58:22;17.20;90.30
12568;DHT22;6349;50.904;6.136;2023-09-19T10:00:29;17.30;86.20
12568;DHT22;6349;50.904;6.136;2023-09-19T10:02:42;17.30;84.30
12568;DHT22;6349;50.904;6.136;2023-09-19T10:04:46;17.40;83.20
12568;DHT22;6349;50.904;6.136;2023-09-19T10:06:59;17.40;79.30
12568;DHT22;6349;50.904;6.136;2023-09-19T10:09:07;17.50;39.80
12568;DHT22;6349;50.904;6.136;2023-09-19T10:11:15;17.50;25.30
12568;DHT22;6349;50.904;6.136;2023-09-19T10:13:16;17.60;22.10
12568;DHT22;6349;50.904;6.136;2023-09-19T10:15:23;17.70;21.20
12568;DHT22;6349;50.904;6.136;2023-09-19T10:17:28;17.70;19.10
12568;DHT22;6349;50.904;6.136;2023-09-19T10:19:42;17.70;15.00
12568;DHT22;6349;50.904;6.136;2023-09-19T10:21:47;17.80;11.50
12568;DHT22;6349;50.904;6.136;2023-09-19T10:23:50;17.90;10.40
12568;DHT22;6349;50.904;6.136;2023-09-19T10:25:53;17.80;1.00
12568;DHT22;6349;50.904;6.136;2023-09-19T10:27:54;17.80;1.00
12568;DHT22;6349;50.904;6.136;2023-09-19T10:29:57;17.80;1.00
12568;DHT22;6349;50.904;6.136;2023-09-19T10:32:00;17.80;1.00
12568;DHT22;6349;50.904;6.136;2023-09-19T10:34:05;17.80;1.00
12568;DHT22;6349;50.904;6.136;2023-09-19T10:36:06;17.70;1.00
12568;DHT22;6349;50.904;6.136;2023-09-19T10:38:13;17.70;1.00
12568;DHT22;6349;50.904;6.136;2023-09-19T10:40:15;17.70;1.00
12568;DHT22;6349;50.904;6.136;2023-09-19T10:42:19;17.70;1.00
12568;DHT22;6349;50.904;6.136;2023-09-19T10:44:25;17.70;1.00
12568;DHT22;6349;50.904;6.136;2023-09-19T10:46:25;17.70;1.00
12568;DHT22;6349;50.904;6.136;2023-09-19T10:48:26;17.80;1.00
12568;DHT22;6349;50.904;6.136;2023-09-19T10:50:34;17.70;1.00
12568;DHT22;6349;50.904;6.136;2023-09-19T10:52:39;17.80;1.00
12568;DHT22;6349;50.904;6.136;2023-09-19T10:54:46;17.80;1.00
12568;DHT22;6349;50.904;6.136;2023-09-19T10:56:50;17.80;1.00
12568;DHT22;6349;50.904;6.136;2023-09-19T10:58:52;17.80;1.00
12568;DHT22;6349;50.904;6.136;2023-09-19T11:00:59;17.80;1.00
12568;DHT22;6349;50.904;6.136;2023-09-19T11:03:17;17.90;1.00
12568;DHT22;6349;50.904;6.136;2023-09-19T11:05:23;17.90;1.00
12568;DHT22;6349;50.904;6.136;2023-09-19T11:07:24;17.90;1.00
12568;DHT22;6349;50.904;6.136;2023-09-19T11:16:24;17.70;1.00
12568;DHT22;6349;50.904;6.136;2023-09-19T11:20:40;17.80;1.00
12568;DHT22;6349;50.904;6.136;2023-09-19T11:24:53;17.90;1.00
12568;DHT22;6349;50.904;6.136;2023-09-19T11:27:12;18.00;1.00
12568;DHT22;6349;50.904;6.136;2023-09-19T11:29:28;18.00;1.00
12568;DHT22;6349;50.904;6.136;2023-09-19T11:31:43;18.10;1.00
12568;DHT22;6349;50.904;6.136;2023-09-19T11:33:46;18.20;1.00
12568;DHT22;6349;50.904;6.136;2023-09-19T11:36:09;18.30;1.00
12568;DHT22;6349;50.904;6.136;2023-09-19T11:38:12;18.30;1.00
12568;DHT22;6349;50.904;6.136;2023-09-19T11:40:15;18.30;1.00
12568;DHT22;6349;50.904;6.136;2023-09-19T11:42:45;18.30;1.00
12568;DHT22;6349;50.904;6.136;2023-09-19T11:44:54;18.40;1.00
12568;DHT22;6349;50.904;6.136;2023-09-19T11:46:56;18.40;1.00
12568;DHT22;6349;50.904;6.136;2023-09-19T11:49:09;18.50;1.00
12568;DHT22;6349;50.904;6.136;2023-09-19T11:51:24;18.60;1.00
12568;DHT22;6349;50.904;6.136;2023-09-19T11:53:31;18.70;1.00
12568;DHT22;6349;50.904;6.136;2023-09-19T11:55:33;18.70;1.00
12568;DHT22;6349;50.904;6.136;2023-09-19T11:57:35;18.80;1.00
12568;DHT22;6349;50.904;6.136;2023-09-19T11:59:38;18.80;1.00
12568;DHT22;6349;50.904;6.136;2023-09-19T12:01:50;18.90;1.00
12568;DHT22;6349;50.904;6.136;2023-09-19T12:03:57;18.90;1.00
12568;DHT22;6349;50.904;6.136;2023-09-19T12:05:59;18.90;1.00
12568;DHT22;6349;50.904;6.136;2023-09-19T12:08:00;18.90;1.00
12568;DHT22;6349;50.904;6.136;2023-09-19T12:10:04;18.90;1.00
12568;DHT22;6349;50.904;6.136;2023-09-19T12:12:06;18.90;1.00
12568;DHT22;6349;50.904;6.136;2023-09-19T12:14:07;18.90;1.00
12568;DHT22;6349;50.904;6.136;2023-09-19T12:16:12;19.00;1.00
12568;DHT22;6349;50.904;6.136;2023-09-19T12:18:31;19.00;1.00
12568;DHT22;6349;50.904;6.136;2023-09-19T12:20:45;19.00;1.00
12568;DHT22;6349;50.904;6.136;2023-09-19T12:22:51;19.10;1.00
12568;DHT22;6349;50.904;6.136;2023-09-19T12:24:51;19.10;1.00
12568;DHT22;6349;50.904;6.136;2023-09-19T12:26:59;19.10;1.00
12568;DHT22;6349;50.904;6.136;2023-09-19T12:29:04;19.20;1.00
12568;DHT22;6349;50.904;6.136;2023-09-19T12:31:08;19.10;1.00
12568;DHT22;6349;50.904;6.136;2023-09-19T12:33:18;19.20;1.00
12568;DHT22;6349;50.904;6.136;2023-09-19T12:35:29;19.30;1.00
12568;DHT22;6349;50.904;6.136;2023-09-19T12:37:35;19.40;1.00
12568;DHT22;6349;50.904;6.136;2023-09-19T12:39:37;19.30;1.00
12568;DHT22;6349;50.904;6.136;2023-09-19T12:41:38;19.40;1.00
12568;DHT22;6349;50.904;6.136;2023-09-19T12:43:40;19.40;1.00
12568;DHT22;6349;50.904;6.136;2023-09-19T12:45:42;19.40;1.00
12568;DHT22;6349;50.904;6.136;2023-09-19T12:48:25;19.50;1.00
12568;DHT22;6349;50.904;6.136;2023-09-19T12:50:32;19.50;1.00
12568;DHT22;6349;50.904;6.136;2023-09-19T12:52:37;19.60;99.90
12568;DHT22;6349;50.904;6.136;2023-09-19T12:54:39;19.60;1.00
12568;DHT22;6349;50.904;6.136;2023-09-19T12:56:41;19.60;1.00
12568;DHT22;6349;50.904;6.136;2023-09-19T12:59:06;19.60;1.00
12568;DHT22;6349;50.904;6.136;2023-09-19T13:01:16;19.60;99.90
12568;DHT22;6349;50.904;6.136;2023-09-19T13:07:54;19.60;99.90
12568;DHT22;6349;50.904;6.136;2023-09-19T13:10:05;19.60;1.00
12568;DHT22;6349;50.904;6.136;2023-09-19T13:12:37;19.60;1.00
12568;DHT22;6349;50.904;6.136;2023-09-19T13:14:38;19.60;1.00
12568;DHT22;6349;50.904;6.136;2023-09-19T13:17:03;19.70;1.00
12568;DHT22;6349;50.904;6.136;2023-09-19T13:19:38;19.70;1.00
12568;DHT22;6349;50.904;6.136;2023-09-19T13:21:42;19.70;1.00
12568;DHT22;6349;50.904;6.136;2023-09-19T13:23:51;19.70;1.00
12568;DHT22;6349;50.904;6.136;2023-09-19T13:25:52;19.60;1.00
12568;DHT22;6349;50.904;6.136;2023-09-19T13:27:54;19.60;1.00
12568;DHT22;6349;50.904;6.136;2023-09-19T13:29:56;19.50;1.00
12568;DHT22;6349;50.904;6.136;2023-09-19T13:31:56;19.50;1.00
12568;DHT22;6349;50.904;6.136;2023-09-19T13:33:57;19.50;1.00
12568;DHT22;6349;50.904;6.136;2023-09-19T13:35:57;19.50;1.00
12568;DHT22;6349;50.904;6.136;2023-09-19T13:37:58;19.50;1.00
12568;DHT22;6349;50.904;6.136;2023-09-19T13:39:59;19.50;1.00
12568;DHT22;6349;50.904;6.136;2023-09-19T13:42:00;19.50;1.00
12568;DHT22;6349;50.904;6.136;2023-09-19T13:44:00;19.50;1.00
12568;DHT22;6349;50.904;6.136;2023-09-19T13:46:01;19.50;1.00
12568;DHT22;6349;50.904;6.136;2023-09-19T13:48:02;19.50;1.00